AirNav   ProFlight Series 2 Aviation Headset
 
 516 users online  

FD08 Antiquers Aerodrome
Delray Beach, Florida, USA

GOING TO DELRAY BEACH?


FAA INFORMATION EFFECTIVE 18 JUNE 2020

Location

FAA Identifier: FD08
Lat/Long: 26-27-55.2650N 080-08-59.1600W
26-27.921083N 080-08.986000W
26.4653514,-80.1497667
(estimated)
Elevation: 23 ft. / 7 m (estimated)
Variation: 03W (1985)
From city: 4 miles W of DELRAY BEACH, FL
Time zone: UTC -4 (UTC -5 during Standard Time)
Zip code: 33446

Airport Operations

Airport use: Private use. Permission required prior to landing
Activation date: 07/1963
Control tower: no
ARTCC: MIAMI CENTER
FSS: MIAMI FLIGHT SERVICE STATION
Attendance: UNATNDD
Wind indicator: yes
Segmented circle: yes
Lights: ONLY THE MIDDLE 3720' ID LIGHTED BETWEEN SS - SR

Airport Communications

WX AWOS-3 at BCT (6 nm SE): 121.125 (561-391-2696)
WX AWOS-3PT at LNA (8 nm NE): 119.925 (561-964-0308)
WX ASOS at PMP (13 nm S): PHONE 954-783-3720
WX ASOS at PBI (13 nm N): 123.75 (561-683-2548)
WX ASOS at FXE (16 nm S): PHONE 954-772-2537

Nearby radio navigation aids

VOR radial/distance  VOR name  Freq  Var
PBIr198/13.3PALM BEACH VORTAC115.7003W
FLLr008/23.5FORT LAUDERDALE VOR/DME114.4006W
PHKr123/34.7PAHOKEE VOR/DME115.4000E

 
NDB name  Hdg/Dist  Freq  Var  ID
UNITED165/28.440505WUTX ..- - -..-

Airport Services

Airframe service: NONE
Powerplant service: NONE

Runway Information

Runway 9/27

Dimensions: 5180 x 85 ft. / 1579 x 26 m
Surface: turf
Runway edge lights: low intensity
RUNWAY 9  RUNWAY 27
Traffic pattern: leftright

Airport Ownership and Management from official FAA records

Ownership: Privately-owned
Owner: ANTIQUERS AERODROME
6530 SKYLINE DRIVE
DELRAY BEACH, FL 33446
Phone 561-496-4434
Manager: BILL LUMLEY
7320 SKYLINE DRIVE
DELRAY, FL 33446
Phone 561-496-4434

Airport Operational Statistics

Aircraft based on the field: 58
Single engine airplanes: 35
Multi engine airplanes: 11
Helicopters: 2
Gliders airplanes: 10
    
Aircraft operations: avg 21/week
92% local general aviation
8% transient general aviation

Additional Remarks

RSDNTL AIR PARK WITH PVT HOMES & HANGARS ADJ TO AIRSTRIP.
50' TWY ON N SIDE OF RWY.
TOTAL TURF RUNWAY LENGTH BETWEEN FENCES: 5180' AND IS AVAILABLE DURING DAYLIGHT HOURS FOR T.O & LDG.
TALL TREES ADJACENT TO RWY 9/27 ALONG SOUTH EDGE OF RWY.
FOR CD CTC PALM BEACH APCH AT 561-275-1430

Instrument Procedures

There are no published instrument procedures at FD08.

Some nearby airports with instrument procedures:

KBCT - Boca Raton Airport (6 nm SE)
KLNA - Palm Beach County Park Airport (8 nm NE)
KPMP - Pompano Beach Airpark (13 nm S)
KPBI - Palm Beach International Airport (13 nm N)
KFXE - Fort Lauderdale Executive Airport (16 nm S)
 
Loc | Ops | Rwys | IFR | FBO | Links
Com | Nav | Svcs | Stats | Notes


 
Area around FD08 (Antiquers Aerodrome)
 
Road maps at: MapQuest Bing Google
 
Aerial photo
WARNING: Photo may not be current or correct
Aerial photo of FD08 (Antiquers Aerodrome)
Photo by Adam Aftab

Do you have a better or more recent aerial photo of Antiquers Aerodrome that you would like to share? If so, please send us your photo.

 
Sectional chart

 
Airport distance calculator
Flying to Antiquers Aerodrome? Find the distance to fly.

From to FD08

Sunrise and sunset
Times for 11-Jul-2020
 Local
(UTC-4)
 Zulu
(UTC)
Morning civil twilight06:1110:11
Sunrise06:3710:37
Sunset20:1600:16
Evening civil twilight20:4100:41

Current date and time
Zulu (UTC)  11-Jul-2020 11:45:21
Local (UTC-4)  11-Jul-2020 07:45:21
 
METAR
KBCT 
6nm SE 
111047Z 24005KT 10SM SCT018 28/25 A2994
KLNA 
8nm NE 
111135Z AUTO 26003KT 10SM CLR 28/26 A2996 RMK AO2 T02770262 PNO
KPMP 
13nm S 
111053Z 27005KT 8SM CLR 26/26 A2994 RMK AO2 SLP139 T02610256
KPBI 
13nm N 
111053Z 28005KT 10SM FEW040 SCT180 BKN250 27/25 A2995 RMK AO2 SLP139 T02670250
KFXE 
16nm S 
111053Z AUTO 26004KT 10SM CLR 27/26 A2994 RMK AO2 SLP141 T02670256
TAF
KPBI 
13nm N 
110859Z 1109/1206 24005KT P6SM SCT040 BKN140 FM111500 26008KT P6SM VCSH SCT040 BKN140 FM111800 21012KT P6SM VCTS SCT025CB BKN050 PROB30 1118/1124 TSRA BKN025CB FM120200 21005KT P6SM FEW050 SCT250
KFXE 
16nm S 
110859Z 1109/1206 24005KT P6SM SCT040 BKN140 FM111500 26008KT P6SM VCSH SCT040 BKN140 FM111800 22012KT P6SM VCTS SCT025CB BKN050 PROB30 1118/1124 TSRA BKN025CB FM120200 22005KT P6SM FEW050 SCT250
NOTAMs
Click for the latest NOTAMs
NOTAMs are issued by the DoD/FAA and will open in a separate window not controlled by AirNav.

 

 
 

Would you like to see your business listed on this page?

 If your business provides an interesting product or service to pilots, flight crews, aircraft, or users of the Antiquers Aerodrome, you should consider listing it here.  To start the listing process, click on the button below
 
Add a business
 

Other Pages about Antiquers Aerodrome

Update a link
 
Copyright © AirNav, LLC. All rights reserved. Privacy Policy  Contact